Forestburg, TX (76239)

8:47 AM CST on January 31, 2015 (GMT -0600)
Thomsen | Change Station
CLOSE
Current Station
Personal Weather Station
Location: Forestburg, TX
Elevation: 921 ft
Nearby Weather Stations

Elev 921 ft 33.44 °N, 97.56 °W | Updated 2 minutes ago

Overcast
Overcast
46.2 °F
Feels Like 44 °F
N
4.0
Wind Variable Wind from ESE

Today
High -- | Low -- °F
--% Chance of Precip.
Yesterday
High -- | Low -- °F
Precip. -- in
7:27 AM 6:00 PM
Waxing Gibbous, 90% visible
Pressure 30.17 in
Visibility 10.0 miles
Clouds Overcast 3500 ft
Windchill 44 °F
Dew Point 32 °F
Humidity 57%
Rainfall 0.00 in
Snow Depth Not available.
UV 0 out of 12
Pollen 7.00 out of 12
Air Quality Not available.
Flu Activity Not available.
METAR K0F2 311430Z AUTO 13009KT 10SM OVC035 07/00 A3017 RMK AO2 T00730001

More Conditions Fewer Conditions

Pressure 30.17 in
Visibility 10.0 miles
Clouds Overcast 3500 ft
Windchill 44 °F
Dew Point 32 °F
Humidity 57%
Rainfall 0.00 in
Snow Depth Not available.
UV 0 out of 12
Pollen 7.00 out of 12
Air Quality Not available.
Flu Activity Not available.
METAR K0F2 311430Z AUTO 13009KT 10SM OVC035 07/00 A3017 RMK AO2 T00730001

More Conditions Fewer Conditions

Nowcast | as of 8:38 am CST on January 31, 2015

Areas of light rain and drizzle will be possible primarily along and northwest of an Eastland to Mineral Wells to Gainesville line. Rainfall amounts will remain light...with only a few hundredths of an inch possible through 11 am. Elsewhere...skies will remain mostly cloudy and temperatures will slowly climb through the mid 40s and low 50s.

×

10-Day Weather Forecast

Almanac

Astronomy

Jan. 31, 2015 Rise Set
Actual Time
Civil Twilight
Nautical Twilight
Astronomical Twilight
Moon
Length of Visible Light
Length of Day
Tomorrow will be .
, % of the Moon is Illuminated

Today's Extremes

State Highs State Lows

Community

WunderPhotos

Upload Photos

1,792,064 photos uploaded!

WunderBlogs® & News

Nearby

Air Quality

  Air Quality AQ Index Pollutant
Not available.

Snow Depth

Station Depth Elevation

Earthquake Activity

City Distance Mag. Time & Date
Minimum magnitude displayed is 2.5.

Coastal Water Temperatures

Place Temperature

Nearby Weather Stations